createdAt,value
2024-01-05T00:00:11.440Z,14.08
2024-01-05T00:00:33.221Z,14.19
2024-01-05T00:00:54.990Z,14.28
2024-01-05T00:01:17.796Z,14.38
2024-01-05T00:01:39.428Z,14.33
2024-01-05T00:02:01.037Z,14.05
2024-01-05T00:02:22.859Z,13.93
2024-01-05T00:02:45.467Z,14.08
2024-01-05T00:03:07.178Z,14.09
2024-01-05T00:03:29.016Z,14.10
2024-01-05T00:03:50.811Z,14.14
2024-01-05T00:04:12.585Z,14.25
2024-01-05T00:04:34.328Z,14.33
2024-01-05T00:04:57.544Z,14.20
2024-01-05T00:05:19.147Z,14.06
2024-01-05T00:05:40.960Z,14.26
2024-01-05T00:06:02.788Z,14.26
2024-01-05T00:06:24.642Z,14.34
2024-01-05T00:06:46.610Z,14.30
2024-01-05T00:07:10.481Z,14.32
2024-01-05T00:07:33.328Z,14.43
2024-01-05T00:07:55.022Z,14.46
2024-01-05T00:08:16.919Z,14.37
2024-01-05T00:08:38.573Z,14.38
2024-01-05T00:09:00.259Z,14.31
2024-01-05T00:09:22.928Z,14.36
2024-01-05T00:09:44.632Z,14.24
2024-01-05T00:10:07.731Z,14.21
2024-01-05T00:10:29.390Z,14.27
2024-01-05T00:10:51.095Z,14.30
2024-01-05T00:11:18.259Z,14.30
2024-01-05T00:11:39.884Z,14.39
2024-01-05T00:12:04.164Z,14.43
2024-01-05T00:12:26.713Z,14.36
2024-01-05T00:12:48.337Z,14.04
2024-01-05T00:13:10.015Z,13.96
2024-01-05T00:13:32.670Z,13.91
2024-01-05T00:13:54.381Z,14.07
2024-01-05T00:14:17.528Z,14.14
2024-01-05T00:14:39.764Z,14.18
2024-01-05T00:15:01.427Z,14.25
2024-01-05T00:15:24.099Z,14.36
2024-01-05T00:15:45.816Z,14.21
2024-01-05T00:16:07.545Z,14.18
2024-01-05T00:16:29.202Z,14.27
2024-01-05T00:16:50.817Z,14.13
2024-01-05T00:17:13.449Z,14.07
2024-01-05T00:17:35.610Z,14.07
2024-01-05T00:17:57.425Z,14.24
2024-01-05T00:18:19.239Z,14.35
2024-01-05T00:18:40.960Z,14.31
2024-01-05T00:19:03.887Z,14.51
2024-01-05T00:19:25.889Z,14.52
2024-01-05T00:19:47.738Z,14.47
2024-01-05T00:20:10.722Z,14.07
2024-01-05T00:20:32.450Z,14.04
2024-01-05T00:20:54.151Z,13.86
2024-01-05T00:23:36.849Z,13.91
2024-01-05T00:28:45.881Z,14.30
2024-01-05T00:31:48.125Z,14.10
2024-01-05T00:32:10.712Z,14.30
2024-01-05T00:32:32.402Z,14.40
2024-01-05T00:32:54.176Z,14.48
2024-01-05T00:33:16.594Z,14.47
2024-01-05T00:33:38.764Z,14.58
2024-01-05T00:34:02.111Z,14.52
2024-01-05T00:34:23.889Z,14.66
2024-01-05T00:34:45.650Z,14.72
2024-01-05T00:35:08.605Z,14.64
2024-01-05T00:35:30.211Z,14.60
2024-01-05T00:35:52.905Z,14.69
2024-01-05T00:36:14.675Z,14.77
2024-01-05T00:36:36.360Z,14.82
2024-01-05T00:36:58.039Z,14.63
2024-01-05T00:37:20.061Z,14.42
2024-01-05T00:37:41.701Z,14.33
2024-01-05T00:38:05.580Z,14.36
2024-01-05T00:38:27.312Z,14.41
2024-01-05T00:38:50.117Z,14.47
2024-01-05T00:39:11.797Z,14.54
2024-01-05T00:39:33.511Z,14.63
2024-01-05T00:39:55.162Z,14.75
2024-01-05T00:40:17.055Z,14.84
2024-01-05T00:40:39.666Z,14.85
2024-01-05T00:41:01.362Z,14.70
2024-01-05T00:41:23.037Z,14.85
2024-01-05T00:41:45.985Z,14.32
2024-01-05T00:42:08.093Z,14.45
2024-01-05T00:42:30.973Z,14.55
2024-01-05T00:42:52.671Z,14.51
2024-01-05T00:43:14.374Z,14.56
2024-01-05T00:43:35.980Z,14.56
2024-01-05T00:43:57.608Z,14.54
2024-01-05T00:44:19.197Z,14.53
2024-01-05T00:44:41.861Z,14.54
2024-01-05T00:45:04.051Z,14.50
2024-01-05T00:45:26.078Z,14.45
2024-01-05T00:45:47.814Z,14.48
2024-01-05T00:46:10.792Z,14.60
2024-01-05T00:46:32.507Z,14.66
2024-01-05T00:46:55.773Z,14.74
2024-01-05T00:47:17.479Z,14.80
2024-01-05T00:47:39.130Z,14.87
2024-01-05T00:48:00.983Z,14.84
2024-01-05T00:48:23.152Z,14.90
2024-01-05T00:48:45.947Z,14.89
2024-01-05T00:49:07.851Z,14.83
2024-01-05T00:49:29.575Z,14.84
2024-01-05T00:49:51.607Z,14.73
2024-01-05T00:50:13.381Z,14.75
2024-01-05T00:50:35.030Z,14.84
2024-01-05T00:50:57.851Z,14.88
2024-01-05T00:51:19.556Z,14.58
2024-01-05T00:51:41.435Z,14.40
2024-01-05T00:52:03.134Z,14.39
2024-01-05T00:52:24.785Z,14.52
2024-01-05T00:52:46.436Z,14.48
2024-01-05T00:53:09.594Z,14.51
2024-01-05T00:53:31.223Z,14.66
2024-01-05T00:53:53.121Z,14.74
2024-01-05T00:54:15.113Z,14.79
2024-01-05T00:54:36.854Z,14.76
2024-01-05T00:54:58.610Z,14.73
2024-01-05T00:55:21.286Z,14.80
2024-01-05T00:55:42.938Z,14.83
2024-01-05T00:56:06.453Z,14.63
2024-01-05T00:56:28.376Z,14.68
2024-01-05T00:56:50.064Z,14.78
2024-01-05T00:57:12.705Z,14.58
2024-01-05T00:57:34.636Z,14.58
2024-01-05T00:57:56.321Z,14.64
2024-01-05T00:58:17.963Z,14.67
2024-01-05T00:58:39.605Z,14.51
2024-01-05T00:59:01.277Z,14.58
2024-01-05T00:59:23.998Z,14.65
2024-01-05T00:59:46.798Z,14.74
2024-01-05T01:00:10.556Z,14.60
2024-01-05T01:00:32.435Z,14.57
2024-01-05T01:00:54.255Z,14.55
2024-01-05T01:01:17.371Z,14.26
2024-01-05T01:01:39.988Z,14.39
2024-01-05T01:02:01.641Z,14.57
2024-01-05T01:02:23.311Z,14.54
2024-01-05T01:02:44.977Z,14.53
2024-01-05T01:03:06.749Z,14.73
2024-01-05T01:03:28.518Z,14.80
2024-01-05T01:03:51.214Z,14.71
2024-01-05T01:04:13.152Z,14.88
2024-01-05T01:04:35.044Z,14.82
2024-01-05T01:04:56.779Z,14.97
2024-01-05T01:05:18.727Z,14.98
2024-01-05T01:05:40.445Z,15.02
2024-01-05T01:21:51.527Z,14.03
2024-01-05T01:22:13.577Z,13.94
2024-01-05T01:22:35.247Z,14.10
2024-01-05T01:22:57.146Z,14.26
2024-01-05T01:23:22.426Z,14.32
2024-01-05T01:23:57.433Z,14.26
2024-01-05T01:24:22.123Z,14.37
2024-01-05T01:24:54.593Z,14.35
2024-01-05T01:25:23.871Z,14.40
2024-01-05T01:25:46.052Z,14.50
2024-01-05T01:26:09.182Z,14.53
2024-01-05T01:27:11.225Z,14.58
2024-01-05T01:27:33.049Z,14.45
2024-01-05T01:27:54.708Z,14.56
2024-01-05T01:28:17.371Z,14.57
2024-01-05T01:28:39.111Z,14.64
2024-01-05T01:29:00.718Z,14.59
2024-01-05T01:29:22.383Z,14.33
2024-01-05T01:29:44.200Z,14.34
2024-01-05T01:30:09.189Z,14.40
2024-01-05T01:30:31.919Z,14.50
2024-01-05T01:30:53.672Z,14.40
2024-01-05T01:31:15.484Z,14.48
2024-01-05T01:31:37.209Z,14.44
2024-01-05T01:31:58.910Z,14.28
2024-01-05T01:32:20.538Z,13.86
2024-01-05T01:32:43.352Z,13.89
2024-01-05T01:33:05.705Z,13.90
2024-01-05T01:33:27.599Z,14.04
2024-01-05T01:33:49.393Z,14.09
2024-01-05T01:34:11.372Z,14.19
2024-01-05T01:34:34.136Z,14.29
2024-01-05T01:34:56.381Z,14.43
2024-01-05T01:35:18.170Z,14.40
2024-01-05T01:35:39.797Z,14.41
2024-01-05T01:36:01.589Z,14.36
2024-01-05T01:36:24.248Z,14.51
2024-01-05T01:36:46.192Z,14.60
2024-01-05T01:37:09.359Z,14.60
2024-01-05T01:37:30.973Z,14.61
2024-01-05T01:37:52.865Z,14.50
2024-01-05T01:38:14.631Z,14.24
2024-01-05T01:38:37.414Z,14.39
2024-01-05T01:38:59.083Z,14.39
2024-01-05T01:39:20.766Z,14.15
2024-01-05T01:39:42.493Z,14.08
2024-01-05T01:40:05.969Z,13.87
2024-01-05T01:40:28.885Z,14.19
2024-01-05T01:40:50.800Z,14.37
2024-01-05T01:41:12.507Z,14.48
2024-01-05T01:41:34.153Z,14.53
2024-01-05T01:41:55.955Z,14.45
2024-01-05T01:42:17.695Z,14.34
2024-01-05T01:42:45.607Z,13.83
2024-01-05T01:43:18.131Z,14.15
2024-01-05T01:43:48.646Z,14.34
2024-01-05T01:44:11.222Z,14.25
2024-01-05T01:44:33.913Z,14.26
2024-01-05T01:44:55.589Z,13.92
2024-01-05T01:45:17.390Z,14.01
2024-01-05T01:45:39.198Z,13.99
2024-01-05T01:46:02.047Z,14.10
2024-01-05T01:46:25.510Z,14.02
2024-01-05T01:46:47.461Z,14.09
2024-01-05T01:47:09.119Z,14.05
2024-01-05T01:47:30.929Z,14.21
2024-01-05T01:47:53.071Z,14.39
2024-01-05T01:48:22.712Z,14.45
2024-01-05T01:49:30.115Z,14.66
2024-01-05T01:49:56.450Z,14.59
2024-01-05T01:50:19.743Z,14.39
2024-01-05T01:50:42.662Z,14.44
2024-01-05T01:51:05.006Z,14.42
2024-01-05T01:51:32.176Z,14.27
2024-01-05T01:51:59.706Z,14.20
2024-01-05T02:19:43.113Z,15.24
2024-01-05T02:20:06.532Z,15.24
2024-01-05T02:20:28.142Z,15.15
2024-01-05T02:20:49.883Z,15.10
2024-01-05T02:21:14.501Z,15.17
2024-01-05T02:21:41.558Z,15.20
2024-01-05T02:22:03.578Z,15.22
2024-01-05T02:22:28.754Z,15.07
2024-01-05T02:22:54.976Z,15.10
2024-01-05T02:23:25.112Z,14.92
2024-01-05T02:23:47.808Z,14.91
2024-01-05T02:24:09.663Z,14.92
2024-01-05T02:24:31.440Z,15.04
2024-01-05T02:24:53.217Z,14.97
2024-01-05T02:25:14.832Z,15.12
2024-01-05T02:25:36.718Z,15.20
2024-01-05T02:26:00.388Z,15.23
2024-01-05T02:26:22.382Z,14.80
2024-01-05T02:26:44.293Z,14.76
2024-01-05T02:27:06.110Z,14.89
2024-01-05T02:27:28.060Z,15.00
2024-01-05T02:27:49.759Z,15.00
2024-01-05T02:28:12.347Z,15.07
2024-01-05T02:28:33.990Z,15.15
2024-01-05T02:28:55.647Z,15.12
2024-01-05T02:29:22.767Z,15.28
2024-01-05T02:40:00.034Z,15.04
2024-01-05T02:40:21.683Z,15.00
2024-01-05T02:40:43.462Z,14.72
2024-01-05T02:41:06.942Z,14.57
2024-01-05T02:41:28.553Z,14.69
2024-01-05T02:41:51.240Z,14.65
2024-01-05T02:42:12.888Z,14.73
2024-01-05T02:42:34.518Z,14.80
2024-01-05T02:42:56.201Z,14.89
2024-01-05T02:43:17.856Z,14.92
2024-01-05T02:43:40.497Z,14.95
2024-01-05T02:44:02.207Z,14.97
2024-01-05T02:44:23.926Z,14.92
2024-01-05T02:44:45.520Z,14.91
2024-01-05T02:45:07.784Z,14.96
2024-01-05T02:45:29.501Z,14.83
2024-01-05T02:45:51.326Z,14.63
2024-01-05T02:46:13.918Z,14.66
2024-01-05T02:46:36.357Z,14.78
2024-01-05T02:46:58.039Z,14.84
2024-01-05T02:47:19.684Z,14.88
2024-01-05T02:47:41.399Z,14.94
2024-01-05T02:48:03.632Z,14.99
2024-01-05T02:48:26.383Z,14.93
2024-01-05T02:48:48.258Z,14.94
2024-01-05T02:49:10.100Z,14.94
2024-01-05T02:49:32.127Z,14.97
2024-01-05T02:49:53.898Z,14.85
2024-01-05T02:50:16.275Z,14.83
2024-01-05T02:50:38.899Z,14.65
2024-01-05T02:51:00.583Z,14.77
2024-01-05T02:51:22.247Z,14.81
2024-01-05T02:51:44.257Z,14.85
2024-01-05T02:52:06.075Z,14.90
2024-01-05T02:52:27.730Z,14.78
2024-01-05T02:52:50.325Z,14.80
2024-01-05T02:53:11.956Z,14.88
2024-01-05T02:53:33.616Z,14.91
2024-01-05T02:53:55.307Z,14.90
2024-01-05T02:54:16.976Z,14.94
2024-01-05T02:54:39.868Z,14.97
2024-01-05T02:55:02.879Z,14.98
2024-01-05T02:55:24.513Z,14.99
2024-01-05T02:55:46.136Z,15.00
2024-01-05T02:56:07.762Z,14.90
2024-01-05T02:56:32.145Z,14.97
2024-01-05T02:56:53.778Z,15.01
2024-01-05T02:57:15.520Z,15.00
2024-01-05T02:57:37.626Z,15.01
2024-01-05T02:58:03.252Z,14.92
2024-01-05T02:58:25.881Z,14.62
2024-01-05T02:58:47.520Z,14.62
2024-01-05T02:59:09.183Z,14.70
2024-01-05T02:59:30.801Z,14.83
2024-01-05T02:59:52.691Z,14.85
2024-01-05T03:00:14.922Z,14.98
2024-01-05T03:00:37.831Z,15.04
2024-01-05T03:00:59.600Z,15.09
2024-01-05T03:01:21.432Z,14.85
2024-01-05T03:01:43.097Z,14.76
2024-01-05T03:02:05.058Z,14.78
2024-01-05T03:02:26.761Z,14.64
2024-01-05T03:02:49.362Z,14.74
2024-01-05T03:03:11.148Z,14.85
2024-01-05T03:03:32.880Z,14.83
2024-01-05T03:03:54.835Z,14.77
2024-01-05T03:04:16.807Z,14.32
2024-01-05T03:04:42.834Z,14.01
2024-01-05T03:05:05.575Z,13.80
2024-01-05T03:05:27.572Z,14.05
2024-01-05T03:05:49.308Z,14.28
2024-01-05T03:06:10.952Z,14.38
2024-01-05T03:06:33.701Z,14.23
2024-01-05T03:06:55.434Z,13.96
2024-01-05T03:07:17.054Z,13.93
2024-01-05T03:07:38.849Z,13.69
2024-01-05T03:08:00.554Z,13.57
2024-01-05T03:08:22.166Z,13.71
2024-01-05T03:08:45.346Z,13.74
2024-01-05T03:09:09.788Z,13.40
2024-01-05T03:09:31.517Z,13.68
2024-01-05T03:09:53.156Z,13.89
2024-01-05T03:10:16.352Z,14.02
2024-01-05T03:10:37.959Z,14.07
2024-01-05T03:11:00.563Z,14.07
2024-01-05T03:12:11.972Z,14.14
2024-01-05T03:12:34.062Z,14.22
2024-01-05T03:19:42.690Z,14.49
2024-01-05T03:21:39.408Z,14.31
2024-01-05T03:22:01.073Z,14.42
2024-01-05T03:22:23.292Z,14.49
2024-01-05T03:22:45.226Z,14.51
2024-01-05T03:23:06.874Z,14.35
2024-01-05T03:23:28.494Z,14.30
2024-01-05T03:23:51.109Z,14.33
2024-01-05T03:24:12.996Z,14.16
2024-01-05T03:24:35.632Z,14.26
2024-01-05T03:24:57.337Z,14.23
2024-01-05T03:25:20.345Z,14.10
2024-01-05T03:25:43.179Z,14.17
2024-01-05T03:26:08.793Z,14.15
2024-01-05T03:26:30.423Z,14.27
2024-01-05T03:26:52.203Z,14.22
2024-01-05T03:27:16.001Z,14.12
2024-01-05T03:27:37.889Z,14.16
2024-01-05T03:27:59.623Z,14.21
2024-01-05T03:28:21.266Z,14.09
2024-01-05T03:28:42.911Z,14.24
2024-01-05T03:29:05.496Z,14.30
2024-01-05T03:29:27.127Z,14.20
2024-01-05T03:29:48.805Z,14.54
2024-01-05T03:30:11.131Z,14.48
2024-01-05T03:30:32.945Z,14.14
2024-01-05T03:30:54.719Z,14.27
2024-01-05T03:31:16.546Z,14.28
2024-01-05T03:31:39.327Z,14.15
2024-01-05T03:32:00.979Z,13.92
2024-01-05T03:32:22.654Z,13.94
2024-01-05T03:32:44.443Z,14.08
2024-01-05T03:33:06.330Z,14.15
2024-01-05T03:33:28.402Z,14.26
2024-01-05T03:33:51.963Z,14.35
2024-01-05T03:34:14.597Z,14.33
2024-01-05T03:34:36.731Z,14.46
2024-01-05T03:34:58.519Z,14.27
2024-01-05T03:35:20.750Z,14.37
2024-01-05T03:35:42.604Z,14.34
2024-01-05T03:36:05.658Z,14.43
2024-01-05T03:36:27.432Z,14.55
2024-01-05T03:36:49.154Z,14.59
2024-01-05T03:37:10.770Z,14.61
2024-01-05T03:37:32.466Z,14.61
2024-01-05T03:37:55.119Z,14.61
2024-01-05T03:38:16.772Z,14.65
2024-01-05T03:38:38.442Z,14.67
2024-01-05T03:39:00.961Z,14.72
2024-01-05T03:39:22.693Z,14.74
2024-01-05T03:39:44.361Z,14.61
2024-01-05T03:40:07.730Z,14.53
2024-01-05T03:40:31.712Z,14.42
2024-01-05T03:40:53.330Z,14.58
2024-01-05T03:41:15.107Z,14.63
2024-01-05T03:41:36.859Z,14.76
2024-01-05T03:41:58.582Z,14.72
2024-01-05T03:45:08.250Z,14.37
2024-01-05T04:03:40.589Z,13.33
2024-01-05T04:04:02.530Z,13.52
2024-01-05T04:04:24.363Z,13.64
2024-01-05T04:04:46.428Z,13.80
2024-01-05T04:05:10.072Z,13.82
2024-01-05T04:05:33.180Z,13.86
2024-01-05T04:05:54.949Z,13.87
2024-01-05T04:06:20.378Z,13.98
2024-01-05T04:06:42.943Z,14.02
2024-01-05T04:07:04.818Z,13.98
2024-01-05T04:07:27.410Z,13.87
2024-01-05T04:07:49.037Z,13.81
2024-01-05T04:08:10.644Z,13.95
2024-01-05T04:08:32.336Z,13.98
2024-01-05T04:08:54.184Z,13.86
2024-01-05T04:09:15.950Z,13.80
2024-01-05T04:09:39.321Z,13.68
2024-01-05T04:10:01.000Z,13.72
2024-01-05T04:10:22.666Z,13.81
2024-01-05T04:10:44.339Z,13.92
2024-01-05T04:11:06.134Z,13.75
2024-01-05T04:11:31.319Z,13.86
2024-01-05T04:11:53.361Z,13.97
2024-01-05T04:12:15.145Z,14.01
2024-01-05T04:12:36.893Z,14.07
2024-01-05T04:12:59.560Z,14.20
2024-01-05T04:13:21.142Z,14.24
2024-01-05T04:13:42.761Z,14.34
2024-01-05T04:14:04.970Z,14.34
2024-01-05T04:14:26.671Z,14.34
2024-01-05T04:14:49.543Z,14.21
2024-01-05T04:15:12.205Z,14.11
2024-01-05T04:15:36.912Z,13.97
2024-01-05T04:15:58.649Z,14.19
2024-01-05T04:16:20.328Z,14.20
2024-01-05T04:16:43.102Z,14.30
2024-01-05T04:17:04.861Z,14.14
2024-01-05T04:17:26.528Z,14.30
2024-01-05T04:17:48.734Z,14.08
2024-01-05T04:18:10.708Z,14.00
2024-01-05T04:18:32.584Z,13.71
2024-01-05T04:18:56.779Z,13.90
2024-01-05T04:19:18.740Z,13.93
2024-01-05T04:19:40.484Z,13.99
2024-01-05T04:20:02.300Z,13.97
2024-01-05T04:20:24.011Z,14.01
2024-01-05T04:20:46.589Z,14.14
2024-01-05T04:21:10.567Z,14.25
2024-01-05T04:21:32.408Z,14.28
2024-01-05T04:21:54.171Z,14.19
2024-01-05T04:22:15.915Z,14.10
2024-01-05T04:22:38.633Z,14.07
2024-01-05T04:23:01.659Z,14.15
2024-01-05T04:23:23.241Z,13.88
2024-01-05T04:23:44.847Z,14.13
2024-01-05T04:24:06.675Z,14.18
2024-01-05T04:24:28.347Z,14.31
2024-01-05T04:24:51.113Z,14.26
2024-01-05T04:25:12.805Z,14.34
2024-01-05T04:25:34.452Z,14.31
2024-01-05T04:25:56.075Z,14.45
2024-01-05T04:26:17.661Z,14.42
2024-01-05T04:26:40.511Z,14.42
2024-01-05T04:27:02.376Z,14.42
2024-01-05T04:27:24.050Z,14.33
2024-01-05T04:27:47.028Z,14.37
2024-01-05T04:28:08.639Z,14.46
2024-01-05T04:28:30.445Z,14.62
2024-01-05T04:28:53.152Z,14.66
2024-01-05T04:29:14.850Z,14.50
2024-01-05T04:29:36.520Z,14.58
2024-01-05T04:29:58.192Z,14.59
2024-01-05T04:30:22.062Z,14.62
2024-01-05T04:30:45.009Z,14.64
2024-01-05T04:31:07.987Z,14.38
2024-01-05T04:31:30.004Z,14.59
2024-01-05T04:31:52.195Z,14.61
2024-01-05T04:32:13.826Z,14.57
2024-01-05T04:32:36.962Z,14.68
2024-01-05T04:32:58.916Z,14.80
2024-01-05T04:33:20.992Z,14.80
2024-01-05T04:33:42.893Z,14.73
2024-01-05T04:34:06.248Z,14.79
2024-01-05T04:34:29.249Z,14.81
2024-01-05T04:34:50.939Z,14.91
2024-01-05T04:35:12.581Z,14.86
2024-01-05T04:35:34.383Z,14.72
2024-01-05T04:35:56.018Z,14.95
2024-01-05T04:36:19.714Z,14.74
2024-01-05T04:36:41.476Z,15.02
2024-01-05T04:37:03.327Z,15.10
2024-01-05T04:37:25.081Z,14.93
2024-01-05T04:37:46.788Z,14.96
2024-01-05T04:38:08.464Z,15.02
2024-01-05T04:38:32.068Z,15.04
2024-01-05T04:38:53.836Z,14.94
2024-01-05T04:39:15.583Z,14.92
2024-01-05T04:39:37.237Z,14.83
2024-01-05T04:39:59.833Z,14.95
2024-01-05T04:40:21.587Z,15.00
2024-01-05T04:40:43.217Z,15.09
2024-01-05T04:41:05.054Z,15.17
2024-01-05T04:41:26.956Z,15.22
2024-01-05T04:41:49.667Z,15.22
2024-01-05T04:42:11.796Z,15.26
2024-01-05T04:42:33.499Z,15.31
2024-01-05T04:42:55.196Z,15.33
2024-01-05T04:43:17.142Z,14.97
2024-01-05T04:43:38.800Z,15.18
2024-01-05T04:44:01.358Z,15.11
2024-01-05T04:44:22.979Z,15.13
2024-01-05T04:55:46.906Z,14.67
2024-01-05T04:56:08.580Z,14.77
2024-01-05T04:56:30.400Z,14.82
2024-01-05T04:56:52.167Z,14.81
2024-01-05T04:57:14.533Z,14.80
2024-01-05T04:57:37.867Z,14.88
2024-01-05T04:57:59.640Z,14.97
2024-01-05T04:58:21.472Z,15.03
2024-01-05T04:58:43.066Z,15.05
2024-01-05T04:59:04.680Z,15.10
2024-01-05T04:59:27.271Z,15.18
2024-01-05T04:59:49.521Z,15.23
2024-01-05T05:00:11.882Z,14.94
2024-01-05T05:00:33.673Z,14.78
2024-01-05T05:00:55.713Z,14.76
2024-01-05T05:01:17.517Z,14.80
2024-01-05T05:01:40.159Z,14.83
2024-01-05T05:02:01.788Z,14.96
2024-01-05T05:02:24.158Z,15.03
2024-01-05T05:02:45.837Z,15.11
2024-01-05T05:03:07.492Z,15.04
2024-01-05T05:03:32.155Z,15.10
2024-01-05T05:03:54.032Z,15.18
2024-01-05T05:04:18.649Z,15.19
2024-01-05T05:04:40.251Z,15.25
2024-01-05T05:05:01.899Z,15.12
2024-01-05T05:05:23.761Z,15.06
2024-01-05T05:05:47.126Z,15.03
2024-01-05T05:06:09.030Z,15.11
2024-01-05T05:06:30.666Z,15.20
2024-01-05T05:06:52.304Z,15.17
2024-01-05T05:07:13.943Z,15.13
2024-01-05T05:07:35.554Z,15.21
2024-01-05T05:07:58.138Z,15.26
2024-01-05T05:08:19.749Z,15.20
2024-01-05T05:08:41.364Z,15.23
2024-01-05T05:09:03.939Z,15.26
2024-01-05T05:09:25.605Z,15.30
2024-01-05T05:09:48.257Z,15.30
2024-01-05T05:10:09.971Z,15.37
2024-01-05T05:10:31.576Z,15.43
2024-01-05T05:10:54.768Z,15.48
2024-01-05T05:11:16.406Z,15.37
2024-01-05T05:11:39.782Z,15.41
2024-01-05T05:12:02.434Z,15.43
2024-01-05T05:12:24.362Z,15.49
2024-01-05T05:12:45.998Z,15.51
2024-01-05T05:13:07.640Z,15.49
2024-01-05T05:13:29.344Z,15.53
2024-01-05T05:13:50.959Z,15.50
2024-01-05T05:14:13.763Z,15.27
2024-01-05T05:14:35.808Z,15.26
2024-01-05T05:14:57.457Z,15.19
2024-01-05T05:15:19.280Z,15.23
2024-01-05T05:15:41.103Z,15.18
2024-01-05T05:16:03.931Z,15.23
2024-01-05T05:16:25.588Z,15.28
2024-01-05T05:16:47.199Z,15.36
2024-01-05T05:17:09.149Z,15.13
2024-01-05T05:17:30.845Z,15.08
2024-01-05T05:17:55.023Z,14.98
2024-01-05T05:18:18.005Z,15.05
2024-01-05T05:18:39.853Z,15.17
2024-01-05T05:19:01.641Z,15.24
2024-01-05T05:19:23.513Z,15.19
2024-01-05T05:19:45.283Z,15.10
2024-01-05T05:20:07.764Z,15.14
2024-01-05T05:20:30.507Z,15.19
2024-01-05T05:20:52.282Z,15.28
2024-01-05T05:21:14.265Z,15.16
2024-01-05T05:21:35.988Z,15.14
2024-01-05T05:21:57.715Z,15.07
2024-01-05T05:22:19.286Z,15.07
2024-01-05T05:22:41.916Z,14.98
2024-01-05T05:23:03.831Z,14.96
2024-01-05T05:23:25.443Z,15.06
2024-01-05T05:23:47.078Z,15.21
2024-01-05T05:24:08.686Z,15.26
2024-01-05T05:24:30.436Z,15.22
2024-01-05T05:24:53.154Z,15.07
2024-01-05T05:25:14.761Z,15.26
2024-01-05T05:25:36.403Z,15.35
2024-01-05T05:25:59.350Z,15.38
2024-01-05T05:36:45.087Z,15.28
2024-01-05T05:37:06.713Z,15.17
2024-01-05T05:37:28.331Z,15.09
2024-01-05T05:37:49.938Z,15.06
2024-01-05T05:38:11.715Z,14.95
2024-01-05T05:38:33.374Z,15.13
2024-01-05T05:38:55.961Z,15.25
2024-01-05T05:39:17.623Z,15.26
2024-01-05T05:39:39.314Z,15.33
2024-01-05T05:40:01.020Z,15.33
2024-01-05T05:40:22.699Z,15.37
2024-01-05T05:40:45.750Z,15.44
2024-01-05T05:41:08.828Z,15.54
2024-01-05T05:41:30.437Z,15.29
2024-01-05T05:41:52.052Z,15.40
2024-01-05T05:42:13.852Z,15.41
2024-01-05T05:42:36.629Z,15.47
2024-01-05T05:42:58.280Z,15.51
2024-01-05T05:43:19.869Z,15.59
2024-01-05T05:43:41.481Z,15.46
2024-01-05T05:44:04.549Z,15.47
2024-01-05T05:44:26.162Z,15.50
2024-01-05T05:44:48.800Z,15.58
2024-01-05T05:45:11.191Z,15.54
2024-01-05T05:45:32.942Z,15.62
2024-01-05T05:45:54.572Z,15.66
2024-01-05T05:46:16.385Z,15.72
2024-01-05T05:46:38.974Z,15.67
2024-01-05T05:47:00.627Z,15.68
2024-01-05T05:47:22.301Z,15.43
2024-01-05T05:47:43.991Z,15.31
2024-01-05T05:48:06.738Z,15.05
2024-01-05T05:48:28.646Z,15.15
2024-01-05T05:48:50.491Z,15.09
2024-01-05T05:49:13.304Z,15.25
2024-01-05T05:49:35.185Z,15.36
2024-01-05T05:49:57.068Z,15.49
2024-01-05T05:50:18.682Z,15.58
2024-01-05T05:50:40.276Z,15.47
2024-01-05T05:51:02.930Z,15.33
2024-01-05T05:51:24.604Z,15.43
2024-01-05T05:51:46.829Z,15.29
2024-01-05T05:52:08.720Z,15.22
2024-01-05T05:52:31.093Z,15.18
2024-01-05T05:52:54.917Z,15.12
2024-01-05T05:53:16.842Z,14.85
2024-01-05T05:53:38.488Z,14.79
2024-01-05T05:54:00.200Z,14.69
2024-01-05T05:54:21.915Z,14.71
2024-01-05T05:54:44.317Z,14.55
2024-01-05T05:55:08.078Z,14.77
2024-01-05T05:55:29.845Z,14.78
2024-01-05T05:55:51.483Z,14.97
2024-01-05T05:56:14.729Z,15.02
2024-01-05T05:56:36.355Z,15.10
2024-01-05T05:56:58.134Z,15.24
2024-01-05T05:57:20.797Z,15.31
2024-01-05T05:57:42.644Z,15.29
2024-01-05T05:58:06.210Z,15.28
2024-01-05T05:58:28.126Z,15.34
2024-01-05T05:58:50.547Z,15.35
2024-01-05T05:59:12.287Z,15.34
2024-01-05T05:59:34.880Z,15.43
2024-01-05T05:59:56.631Z,15.46
2024-01-05T06:00:18.939Z,15.34
2024-01-05T06:00:40.783Z,15.30
2024-01-05T06:01:02.664Z,15.36
2024-01-05T06:01:25.817Z,15.28
2024-01-05T06:01:47.483Z,15.42
2024-01-05T06:02:09.139Z,15.56
2024-01-05T06:02:30.785Z,15.54
2024-01-05T06:02:52.575Z,15.61
2024-01-05T06:03:14.727Z,15.64
2024-01-05T06:03:37.585Z,15.52
2024-01-05T06:03:59.397Z,15.55
2024-01-05T06:04:21.239Z,15.46
2024-01-05T06:04:42.939Z,15.30
2024-01-05T06:05:05.851Z,15.33
2024-01-05T06:05:28.496Z,14.98
2024-01-05T06:05:50.153Z,15.15
2024-01-05T06:06:19.862Z,15.31
2024-01-05T06:06:41.931Z,15.24
2024-01-05T06:07:03.920Z,15.36
2024-01-05T06:07:26.701Z,15.18
2024-01-05T06:07:48.395Z,15.16
2024-01-05T06:08:10.113Z,15.19
2024-01-05T06:08:31.749Z,14.95
2024-01-05T06:08:53.639Z,14.77
2024-01-05T06:09:16.166Z,14.53
2024-01-05T06:09:39.164Z,14.59
2024-01-05T06:10:00.869Z,14.69
2024-01-05T06:10:23.316Z,14.74
2024-01-05T06:10:44.933Z,14.70
2024-01-05T06:11:06.657Z,14.86
2024-01-05T06:11:29.656Z,15.02
2024-01-05T06:11:52.217Z,15.08
2024-01-05T06:12:14.073Z,15.24
2024-01-05T06:12:35.852Z,15.31
2024-01-05T06:12:57.590Z,15.29
2024-01-05T06:13:19.465Z,15.31
2024-01-05T06:13:42.154Z,15.00
2024-01-05T06:14:05.392Z,14.99
2024-01-05T06:14:27.052Z,14.93
2024-01-05T06:14:48.709Z,14.98
2024-01-05T06:15:10.735Z,15.07
2024-01-05T06:15:33.416Z,15.21
2024-01-05T06:15:55.085Z,15.30
2024-01-05T06:16:16.716Z,15.10
2024-01-05T06:16:38.395Z,15.17
2024-01-05T06:17:00.034Z,15.24
2024-01-05T06:17:22.693Z,15.14
2024-01-05T06:17:44.382Z,14.94
2024-01-05T06:18:06.689Z,14.77
2024-01-05T06:27:25.609Z,14.54
2024-01-05T06:28:50.704Z,14.10
2024-01-05T06:29:12.479Z,14.02
2024-01-05T06:29:34.135Z,14.07
2024-01-05T06:29:56.523Z,14.09
2024-01-05T06:30:19.509Z,14.07
2024-01-05T06:30:41.292Z,14.06
2024-01-05T06:31:03.165Z,14.10
2024-01-05T06:31:25.659Z,14.12
2024-01-05T06:31:48.626Z,14.12
2024-01-05T06:32:10.321Z,14.28
2024-01-05T06:32:31.975Z,14.40
2024-01-05T06:32:53.742Z,14.44
2024-01-05T06:33:15.546Z,14.48
2024-01-05T06:33:38.394Z,14.34
2024-01-05T06:34:03.085Z,14.50
2024-01-05T06:34:25.318Z,14.61
2024-01-05T06:34:47.163Z,14.58
2024-01-05T06:35:10.319Z,14.16
2024-01-05T06:35:31.954Z,14.13
2024-01-05T06:35:53.761Z,14.15
2024-01-05T06:36:15.431Z,14.30
2024-01-05T06:36:37.085Z,14.32
2024-01-05T06:36:58.778Z,14.35
2024-01-05T06:37:21.335Z,14.38
2024-01-05T06:37:42.925Z,14.24
2024-01-05T06:38:04.549Z,14.07
2024-01-05T06:38:26.168Z,14.06
2024-01-05T06:38:47.807Z,14.19
2024-01-05T06:39:10.803Z,14.27
2024-01-05T06:39:32.645Z,14.30
2024-01-05T06:39:54.284Z,14.12
2024-01-05T06:40:16.047Z,14.28
2024-01-05T06:40:37.648Z,14.40
2024-01-05T06:40:59.241Z,14.50
2024-01-05T06:41:21.848Z,14.53
2024-01-05T06:41:43.598Z,14.59
2024-01-05T06:42:08.265Z,14.54
2024-01-05T06:42:30.592Z,14.64
2024-01-05T06:42:52.320Z,14.74
2024-01-05T06:43:13.963Z,14.66
2024-01-05T06:43:36.534Z,14.75
2024-01-05T06:43:59.475Z,14.63
2024-01-05T06:44:21.132Z,14.77
2024-01-05T06:44:42.796Z,14.40
2024-01-05T06:45:05.345Z,14.45
2024-01-05T06:45:28.478Z,14.34
2024-01-05T06:45:50.229Z,14.26
2024-01-05T06:46:11.876Z,14.40
2024-01-05T06:46:33.835Z,14.28
2024-01-05T06:46:55.494Z,14.15
2024-01-05T06:47:17.229Z,14.23
2024-01-05T06:47:39.912Z,13.93
2024-01-05T06:48:01.781Z,14.04
2024-01-05T06:48:23.780Z,14.26
2024-01-05T06:48:45.688Z,14.25
2024-01-05T06:49:07.623Z,14.28
2024-01-05T07:00:11.130Z,14.81
2024-01-05T07:00:35.099Z,14.84
2024-01-05T07:00:57.981Z,14.91
2024-01-05T07:01:19.852Z,14.88
2024-01-05T07:01:41.741Z,14.88
2024-01-05T07:02:03.817Z,14.86
2024-01-05T07:02:25.912Z,14.69
2024-01-05T07:02:48.509Z,14.63
2024-01-05T07:03:10.498Z,14.39
2024-01-05T07:03:32.300Z,14.37
2024-01-05T07:03:54.200Z,14.28